Time;durP1;ratioP1;P1;durP2;ratioP2;P2;SDS_P1;SDS_P2;PMS_P1;PMS_P2;Temp;Humidity;BMP_temperature;BMP_pressure;BME280_temperature;BME280_humidity;BME280_pressure;Samples;Min_cycle;Max_cycle;Signal;HPM_P1;HPM_P2
2022/08/31 00:04:53;;;;;;;;;;;17.40;95.70;;;;;;5072924;28;20272;-49
2022/08/31 00:07:19;;;;;;;;;;;17.30;95.80;;;;;;5072579;28;20290;-51
2022/08/31 00:09:44;;;;;;;;;;;17.30;95.90;;;;;;5072452;28;19927;-50
2022/08/31 00:12:10;;;;;;;;;;;17.30;96.00;;;;;;5072581;28;19965;-46
2022/08/31 00:14:36;;;;;;;;;;;17.30;96.10;;;;;;5072556;28;19928;-48
2022/08/31 00:17:01;;;;;;;;;;;17.30;96.10;;;;;;5071890;28;19923;-50
2022/08/31 00:19:27;;;;;;;;;;;17.30;96.10;;;;;;5071137;28;19920;-47
2022/08/31 00:21:52;;;;;;;;;;;17.30;96.10;;;;;;5071226;28;19916;-47
2022/08/31 00:24:18;;;;;;;;;;;17.20;96.20;;;;;;5070493;28;20109;-47
2022/08/31 00:26:44;;;;;;;;;;;17.30;96.20;;;;;;5072012;28;20282;-45
2022/08/31 00:29:10;;;;;;;;;;;17.20;96.20;;;;;;5072384;28;19916;-45
2022/08/31 00:31:35;;;;;;;;;;;17.20;96.20;;;;;;5072298;28;20339;-46
2022/08/31 00:34:01;;;;;;;;;;;17.10;96.30;;;;;;5070967;28;19920;-48
2022/08/31 00:36:27;;;;;;;;;;;17.10;96.40;;;;;;5070746;28;20298;-48
2022/08/31 00:38:53;;;;;;;;;;;17.00;96.30;;;;;;5072235;28;20354;-50
2022/08/31 00:41:20;;;;;;;;;;;17.00;96.40;;;;;;5071877;28;19917;-50
2022/08/31 00:43:48;;;;;;;;;;;16.90;96.40;;;;;;5072249;28;19939;-50
2022/08/31 00:46:15;;;;;;;;;;;16.90;96.40;;;;;;5071116;28;20447;-49
2022/08/31 00:48:44;;;;;;;;;;;16.90;96.40;;;;;;5072147;28;20015;-47
2022/08/31 00:51:10;;;;;;;;;;;16.90;96.50;;;;;;5070094;28;19920;-47
2022/08/31 00:53:36;;;;;;;;;;;16.90;96.40;;;;;;5071969;28;19916;-45
2022/08/31 00:56:02;;;;;;;;;;;16.80;96.40;;;;;;5071791;28;19924;-49
2022/08/31 00:58:28;;;;;;;;;;;16.80;96.40;;;;;;5071728;28;19927;-46
2022/08/31 01:00:53;;;;;;;;;;;16.80;96.60;;;;;;5070165;28;19974;-46
2022/08/31 01:03:20;;;;;;;;;;;16.60;96.60;;;;;;5072074;28;20359;-48
2022/08/31 01:05:46;;;;;;;;;;;16.70;96.50;;;;;;5068992;28;19932;-46
2022/08/31 01:08:12;;;;;;;;;;;16.60;96.40;;;;;;5071326;28;19916;-51
2022/08/31 01:10:42;;;;;;;;;;;16.60;96.50;;;;;;5071500;28;20357;-46
2022/08/31 01:13:11;;;;;;;;;;;16.60;96.20;;;;;;5071241;28;19916;-47
2022/08/31 01:15:38;;;;;;;;;;;16.60;95.70;;;;;;5071383;28;19928;-48
2022/08/31 01:18:05;;;;;;;;;;;16.70;95.80;;;;;;5070390;28;20388;-46
2022/08/31 01:20:35;;;;;;;;;;;16.60;95.20;;;;;;5071542;28;19927;-46
2022/08/31 01:23:07;;;;;;;;;;;16.70;95.10;;;;;;5070767;28;19920;-49
2022/08/31 01:25:33;;;;;;;;;;;16.70;94.70;;;;;;5071570;28;19916;-50
2022/08/31 01:28:00;;;;;;;;;;;16.60;94.60;;;;;;5070676;28;19916;-46
2022/08/31 01:30:26;;;;;;;;;;;16.60;94.20;;;;;;5069393;28;19920;-48
2022/08/31 01:32:52;;;;;;;;;;;16.60;94.10;;;;;;5070641;28;20270;-50
2022/08/31 01:35:18;;;;;;;;;;;16.50;93.80;;;;;;5070494;28;19931;-47
2022/08/31 01:37:43;;;;;;;;;;;16.50;93.60;;;;;;5070745;28;19924;-47
2022/08/31 01:40:09;;;;;;;;;;;16.50;93.60;;;;;;5071162;28;19924;-48
2022/08/31 01:42:35;;;;;;;;;;;16.40;93.30;;;;;;5070931;28;20386;-49
2022/08/31 01:45:01;;;;;;;;;;;16.50;93.30;;;;;;5071074;28;20337;-50
2022/08/31 01:47:27;;;;;;;;;;;16.40;93.20;;;;;;5070132;28;20008;-46
2022/08/31 01:49:52;;;;;;;;;;;16.50;93.20;;;;;;5070787;28;20357;-50
2022/08/31 01:52:18;;;;;;;;;;;16.40;92.90;;;;;;5070317;28;20260;-48
2022/08/31 01:54:44;;;;;;;;;;;16.40;93.10;;;;;;5070775;28;19920;-47
2022/08/31 01:57:09;;;;;;;;;;;16.40;92.90;;;;;;5070609;28;19916;-47
2022/08/31 01:59:35;;;;;;;;;;;16.40;92.90;;;;;;5070480;28;20003;-46
2022/08/31 02:02:00;;;;;;;;;;;16.40;92.90;;;;;;5070234;28;19920;-47
2022/08/31 02:04:27;;;;;;;;;;;16.30;92.80;;;;;;5070258;28;19977;-50
2022/08/31 02:06:54;;;;;;;;;;;16.30;92.50;;;;;;5069803;28;20248;-48
2022/08/31 02:09:21;;;;;;;;;;;16.20;92.50;;;;;;5070524;28;19923;-48
2022/08/31 02:11:46;;;;;;;;;;;16.10;92.70;;;;;;5070518;28;19927;-47
2022/08/31 02:14:12;;;;;;;;;;;16.10;92.60;;;;;;5069844;28;19920;-48
2022/08/31 02:16:38;;;;;;;;;;;16.10;92.60;;;;;;5069627;28;19924;-51
2022/08/31 02:19:04;;;;;;;;;;;16.00;92.40;;;;;;5069896;28;19920;-49
2022/08/31 02:21:29;;;;;;;;;;;15.90;92.40;;;;;;5070058;28;20085;-49
2022/08/31 02:23:55;;;;;;;;;;;15.90;92.40;;;;;;5068434;28;19917;-48
2022/08/31 02:26:20;;;;;;;;;;;15.90;92.70;;;;;;5068610;28;20021;-48
2022/08/31 02:28:46;;;;;;;;;;;15.90;92.70;;;;;;5070188;28;19927;-45
2022/08/31 02:31:12;;;;;;;;;;;15.80;92.80;;;;;;5070025;28;19943;-47
2022/08/31 02:33:38;;;;;;;;;;;15.80;92.80;;;;;;5070247;28;20405;-47
2022/08/31 02:36:03;;;;;;;;;;;15.70;92.60;;;;;;5069738;28;19924;-47
2022/08/31 02:38:30;;;;;;;;;;;15.70;92.90;;;;;;5069953;28;20043;-47
2022/08/31 02:40:56;;;;;;;;;;;15.60;93.10;;;;;;5069958;28;19927;-48
2022/08/31 02:43:21;;;;;;;;;;;15.60;93.00;;;;;;5069697;28;20007;-46
2022/08/31 02:45:47;;;;;;;;;;;15.60;93.10;;;;;;5068179;28;19924;-46
2022/08/31 02:48:13;;;;;;;;;;;15.50;93.20;;;;;;5068586;28;19921;-51
2022/08/31 02:50:39;;;;;;;;;;;15.50;93.20;;;;;;5069898;28;19927;-49
2022/08/31 02:53:05;;;;;;;;;;;15.40;93.20;;;;;;5070100;28;19916;-49
2022/08/31 02:55:31;;;;;;;;;;;15.40;93.30;;;;;;5069533;28;19926;-48
2022/08/31 02:57:56;;;;;;;;;;;15.30;93.50;;;;;;5069565;28;19931;-47
2022/08/31 03:00:22;;;;;;;;;;;15.30;93.60;;;;;;5070117;28;19920;-50
2022/08/31 03:02:48;;;;;;;;;;;15.20;93.60;;;;;;5069866;28;19972;-47
2022/08/31 03:05:14;;;;;;;;;;;15.30;93.70;;;;;;5069690;28;19916;-45
2022/08/31 03:07:40;;;;;;;;;;;15.20;93.70;;;;;;5069441;28;19920;-47
2022/08/31 03:10:07;;;;;;;;;;;15.20;93.80;;;;;;5068470;28;19993;-48
2022/08/31 03:12:33;;;;;;;;;;;15.10;93.90;;;;;;5068366;28;19927;-47
2022/08/31 03:14:58;;;;;;;;;;;15.00;94.10;;;;;;5069740;28;20389;-47
2022/08/31 03:17:24;;;;;;;;;;;15.00;94.00;;;;;;5068399;28;19916;-48
2022/08/31 03:19:49;;;;;;;;;;;15.00;94.10;;;;;;5069660;28;20400;-45
2022/08/31 03:22:15;;;;;;;;;;;14.90;94.30;;;;;;5069896;28;20367;-50
2022/08/31 03:24:42;;;;;;;;;;;14.80;94.40;;;;;;5068122;28;20474;-49
2022/08/31 03:27:08;;;;;;;;;;;14.80;94.50;;;;;;5068988;28;19928;-47
2022/08/31 03:29:33;;;;;;;;;;;14.80;94.50;;;;;;5069606;28;20355;-49
2022/08/31 03:32:00;;;;;;;;;;;14.70;94.70;;;;;;5069236;28;19999;-51
2022/08/31 03:34:25;;;;;;;;;;;14.70;94.60;;;;;;5069487;28;19917;-48
2022/08/31 03:36:51;;;;;;;;;;;14.70;94.60;;;;;;5068795;28;19920;-48
2022/08/31 03:39:16;;;;;;;;;;;14.50;94.70;;;;;;5069444;28;19924;-49
2022/08/31 03:41:42;;;;;;;;;;;14.60;94.90;;;;;;5069404;28;19920;-49
2022/08/31 03:44:07;;;;;;;;;;;14.40;94.90;;;;;;5069129;28;19916;-49
2022/08/31 03:46:33;;;;;;;;;;;14.40;95.00;;;;;;5068273;28;20386;-47
2022/08/31 03:49:00;;;;;;;;;;;14.40;95.20;;;;;;5069657;28;19974;-48
2022/08/31 03:51:25;;;;;;;;;;;14.30;95.40;;;;;;5068976;28;20353;-49
2022/08/31 03:53:51;;;;;;;;;;;14.30;95.50;;;;;;5069395;28;19937;-49
2022/08/31 03:56:17;;;;;;;;;;;14.20;95.60;;;;;;5067515;28;20320;-47
2022/08/31 03:58:42;;;;;;;;;;;14.20;95.70;;;;;;5068927;28;20361;-48
2022/08/31 04:01:10;;;;;;;;;;;14.20;95.90;;;;;;5072965;28;20007;-49
2022/08/31 04:03:35;;;;;;;;;;;14.20;96.00;;;;;;5072708;28;19924;-49
2022/08/31 04:06:01;;;;;;;;;;;14.10;96.10;;;;;;5072619;28;19923;-50
2022/08/31 04:08:26;;;;;;;;;;;14.10;96.20;;;;;;5072284;28;19928;-48
2022/08/31 04:10:52;;;;;;;;;;;14.00;96.50;;;;;;5072392;28;20379;-48
2022/08/31 04:13:18;;;;;;;;;;;14.00;96.60;;;;;;5072440;28;19931;-47
2022/08/31 04:15:45;;;;;;;;;;;14.00;96.80;;;;;;5072394;28;19927;-48
2022/08/31 04:18:12;;;;;;;;;;;14.00;96.90;;;;;;5071813;28;19916;-50
2022/08/31 04:20:41;;;;;;;;;;;13.90;97.00;;;;;;5072409;28;19920;-47
2022/08/31 04:23:08;;;;;;;;;;;13.80;97.20;;;;;;5072576;28;19936;-48
2022/08/31 04:25:38;;;;;;;;;;;13.80;97.50;;;;;;5071256;28;20384;-49
2022/08/31 04:28:04;;;;;;;;;;;13.80;97.70;;;;;;5071796;28;19948;-49
2022/08/31 04:30:29;;;;;;;;;;;13.80;97.70;;;;;;5053955;28;19971;-48
2022/08/31 04:32:55;;;;;;;;;;;13.80;97.90;;;;;;5072351;28;20019;-46
2022/08/31 04:35:21;;;;;;;;;;;13.70;98.10;;;;;;5072308;28;19923;-50
2022/08/31 04:37:47;;;;;;;;;;;13.60;98.30;;;;;;5070730;28;19920;-47
2022/08/31 04:40:18;;;;;;;;;;;13.70;98.40;;;;;;5071878;28;20299;-49
2022/08/31 04:42:44;;;;;;;;;;;13.70;98.50;;;;;;5070892;28;19924;-49
2022/08/31 04:45:10;;;;;;;;;;;13.60;98.70;;;;;;5072137;28;19921;-49
2022/08/31 04:47:36;;;;;;;;;;;13.50;98.90;;;;;;5069599;28;20362;-45
2022/08/31 04:50:02;;;;;;;;;;;13.60;99.00;;;;;;5072044;28;19927;-48
2022/08/31 04:52:28;;;;;;;;;;;13.50;99.20;;;;;;5072000;28;20261;-48
2022/08/31 04:54:53;;;;;;;;;;;13.50;99.40;;;;;;5071917;28;20367;-49
2022/08/31 04:57:19;;;;;;;;;;;13.50;99.40;;;;;;5071505;28;19916;-47
2022/08/31 04:59:44;;;;;;;;;;;13.50;99.60;;;;;;5069980;28;20011;-45
2022/08/31 05:02:10;;;;;;;;;;;13.50;99.70;;;;;;5072022;28;20046;-47
2022/08/31 05:04:35;;;;;;;;;;;13.50;99.90;;;;;;5071753;28;20016;-46
2022/08/31 05:07:01;;;;;;;;;;;13.40;99.90;;;;;;5071001;28;19968;-48
2022/08/31 05:09:26;;;;;;;;;;;13.30;99.90;;;;;;5071373;28;19930;-48
2022/08/31 05:11:54;;;;;;;;;;;13.30;99.90;;;;;;5070185;28;20264;-47
2022/08/31 05:14:23;;;;;;;;;;;13.30;99.90;;;;;;5071636;28;19968;-46
2022/08/31 05:16:48;;;;;;;;;;;13.30;99.90;;;;;;5069543;28;20006;-47
2022/08/31 05:19:14;;;;;;;;;;;13.30;99.90;;;;;;5071478;28;20004;-46
2022/08/31 05:21:40;;;;;;;;;;;13.30;99.90;;;;;;5071219;28;20417;-48
2022/08/31 05:24:08;;;;;;;;;;;13.30;99.90;;;;;;5071611;28;19917;-47
2022/08/31 05:26:35;;;;;;;;;;;13.30;99.90;;;;;;5070695;28;19924;-47
2022/08/31 05:29:02;;;;;;;;;;;13.30;99.90;;;;;;5071289;28;20448;-47
2022/08/31 05:31:28;;;;;;;;;;;13.20;99.90;;;;;;5071086;28;19926;-48
2022/08/31 05:33:55;;;;;;;;;;;13.20;99.90;;;;;;5070902;28;19923;-47
2022/08/31 05:36:20;;;;;;;;;;;13.30;99.90;;;;;;5070318;28;19916;-47
2022/08/31 05:38:46;;;;;;;;;;;13.30;99.90;;;;;;5070761;28;19920;-45
2022/08/31 05:41:11;;;;;;;;;;;13.30;99.90;;;;;;5070403;28;19917;-50
2022/08/31 05:43:38;;;;;;;;;;;13.30;99.90;;;;;;5070664;28;19924;-47
2022/08/31 05:46:05;;;;;;;;;;;13.30;99.90;;;;;;5070358;28;19960;-48
2022/08/31 05:48:32;;;;;;;;;;;13.30;99.90;;;;;;5070236;28;20383;-47
2022/08/31 05:51:05;;;;;;;;;;;13.40;99.90;;;;;;5070545;28;19953;-49
2022/08/31 05:53:31;;;;;;;;;;;13.40;99.90;;;;;;5069023;28;19924;-48
2022/08/31 05:55:58;;;;;;;;;;;13.40;99.90;;;;;;5070309;28;20303;-49
2022/08/31 05:58:23;;;;;;;;;;;13.50;99.90;;;;;;5070061;28;19931;-48
2022/08/31 06:00:49;;;;;;;;;;;13.50;99.90;;;;;;5070181;28;19916;-47
2022/08/31 06:03:14;;;;;;;;;;;13.60;99.90;;;;;;5070233;28;19921;-50
2022/08/31 06:05:40;;;;;;;;;;;13.60;99.90;;;;;;5070269;28;20167;-47
2022/08/31 06:08:06;;;;;;;;;;;13.70;99.90;;;;;;5069974;28;19924;-45
2022/08/31 06:10:32;;;;;;;;;;;13.80;99.90;;;;;;5069121;28;19931;-46
2022/08/31 06:12:57;;;;;;;;;;;13.80;99.90;;;;;;5070388;28;19922;-46
2022/08/31 06:15:23;;;;;;;;;;;13.90;99.90;;;;;;5070131;28;19928;-46
2022/08/31 06:17:48;;;;;;;;;;;13.90;99.90;;;;;;5069469;28;20019;-45
2022/08/31 06:20:16;;;;;;;;;;;14.10;99.90;;;;;;5070023;28;19916;-48
2022/08/31 06:22:45;;;;;;;;;;;14.10;99.90;;;;;;5068415;28;19924;-48
2022/08/31 06:25:16;;;;;;;;;;;14.10;99.90;;;;;;5070009;28;19966;-47
2022/08/31 06:27:42;;;;;;;;;;;14.20;99.90;;;;;;5068023;28;19919;-50
2022/08/31 06:30:08;;;;;;;;;;;14.20;99.90;;;;;;5070123;28;20002;-48
2022/08/31 06:32:34;;;;;;;;;;;14.30;99.90;;;;;;5069914;28;20043;-49
2022/08/31 06:34:59;;;;;;;;;;;14.50;99.90;;;;;;5069703;28;19962;-46
2022/08/31 06:37:25;;;;;;;;;;;14.50;99.90;;;;;;5069611;28;19926;-48
2022/08/31 06:39:51;;;;;;;;;;;14.60;99.90;;;;;;5069782;28;19935;-47
2022/08/31 06:42:16;;;;;;;;;;;14.60;99.90;;;;;;5068935;28;19928;-47
2022/08/31 06:44:42;;;;;;;;;;;14.60;99.90;;;;;;5069518;28;19920;-48
2022/08/31 06:47:08;;;;;;;;;;;14.70;99.90;;;;;;5068850;28;19927;-46
2022/08/31 06:49:33;;;;;;;;;;;14.80;99.90;;;;;;5069921;28;19927;-50
2022/08/31 06:51:59;;;;;;;;;;;14.80;99.90;;;;;;5069494;28;20371;-49
2022/08/31 06:54:25;;;;;;;;;;;14.90;99.90;;;;;;5069315;28;20375;-52
2022/08/31 06:56:50;;;;;;;;;;;14.90;99.90;;;;;;5068954;28;19921;-50
2022/08/31 06:59:16;;;;;;;;;;;15.00;99.90;;;;;;5069806;28;19925;-49
2022/08/31 07:01:41;;;;;;;;;;;15.20;99.90;;;;;;5069768;28;19920;-49
2022/08/31 07:04:08;;;;;;;;;;;15.10;99.90;;;;;;5069785;28;20019;-48
2022/08/31 07:06:35;;;;;;;;;;;15.10;99.90;;;;;;5068372;28;19935;-48
2022/08/31 07:09:02;;;;;;;;;;;15.20;99.90;;;;;;5069580;28;20386;-50
2022/08/31 07:11:32;;;;;;;;;;;15.30;99.90;;;;;;5067993;28;20436;-50
2022/08/31 07:13:57;;;;;;;;;;;15.40;99.90;;;;;;5069692;28;20480;-51
2022/08/31 07:16:24;;;;;;;;;;;15.40;99.90;;;;;;5068927;28;20114;-49
2022/08/31 07:18:52;;;;;;;;;;;15.40;99.90;;;;;;5069305;28;20006;-49
2022/08/31 07:21:19;;;;;;;;;;;15.50;99.90;;;;;;5069623;28;20389;-49
2022/08/31 07:23:47;;;;;;;;;;;15.70;99.90;;;;;;5069306;28;20375;-49
2022/08/31 07:26:18;;;;;;;;;;;15.70;99.90;;;;;;5069409;28;20395;-47
2022/08/31 07:28:43;;;;;;;;;;;15.90;99.90;;;;;;5069553;28;19928;-47
2022/08/31 07:31:10;;;;;;;;;;;15.80;99.90;;;;;;5069540;28;19920;-49
2022/08/31 07:33:40;;;;;;;;;;;15.80;99.90;;;;;;5069941;28;19917;-49
2022/08/31 07:36:13;;;;;;;;;;;15.90;99.90;;;;;;5072906;28;19923;-48
2022/08/31 07:44:10;;;;;;;;;;;16.40;99.90;;;;;;5073339;28;20525;-46
2022/08/31 07:46:35;;;;;;;;;;;16.30;99.90;;;;;;5070696;28;19927;-50
2022/08/31 07:49:01;;;;;;;;;;;16.40;99.90;;;;;;5073413;28;19920;-44
2022/08/31 07:51:27;;;;;;;;;;;16.50;99.90;;;;;;5073172;28;19947;-47
2022/08/31 07:53:53;;;;;;;;;;;16.60;99.90;;;;;;5072908;28;20364;-48
2022/08/31 07:56:19;;;;;;;;;;;16.70;99.90;;;;;;5072918;28;19973;-48
2022/08/31 07:58:48;;;;;;;;;;;16.70;99.80;;;;;;5072456;28;19916;-50
2022/08/31 08:01:15;;;;;;;;;;;16.80;98.70;;;;;;5073132;28;19916;-47
2022/08/31 08:03:42;;;;;;;;;;;16.80;98.70;;;;;;5071056;28;20025;-47
2022/08/31 08:06:11;;;;;;;;;;;16.70;98.80;;;;;;5072493;28;19916;-46
2022/08/31 08:08:36;;;;;;;;;;;16.80;98.20;;;;;;5070986;28;20146;-53
2022/08/31 08:11:02;;;;;;;;;;;17.00;98.80;;;;;;5073094;28;19926;-48
2022/08/31 08:13:27;;;;;;;;;;;17.20;98.30;;;;;;5072862;28;19959;-47
2022/08/31 08:15:53;;;;;;;;;;;17.10;98.30;;;;;;5072093;28;20792;-49
2022/08/31 08:18:19;;;;;;;;;;;17.20;97.70;;;;;;5071833;28;19936;-50
2022/08/31 08:20:45;;;;;;;;;;;17.10;97.60;;;;;;5072591;28;19920;-46
2022/08/31 08:23:13;;;;;;;;;;;17.20;98.10;;;;;;5072795;28;19927;-48
2022/08/31 08:25:38;;;;;;;;;;;17.50;97.50;;;;;;5072123;28;19924;-48
2022/08/31 08:28:04;;;;;;;;;;;17.60;96.90;;;;;;5071930;28;19949;-50
2022/08/31 08:30:29;;;;;;;;;;;17.60;96.90;;;;;;5072385;28;19927;-49
2022/08/31 08:32:58;;;;;;;;;;;17.70;97.40;;;;;;5071859;28;19917;-48
2022/08/31 08:35:28;;;;;;;;;;;17.70;96.70;;;;;;5072298;28;19916;-46
2022/08/31 08:37:54;;;;;;;;;;;17.90;96.70;;;;;;5071443;28;19927;-46
2022/08/31 08:40:28;;;;;;;;;;;17.80;96.40;;;;;;5070737;28;19920;-49
2022/08/31 08:42:53;;;;;;;;;;;17.90;96.20;;;;;;5072238;28;19921;-51
2022/08/31 08:45:19;;;;;;;;;;;18.20;96.30;;;;;;5071462;28;20268;-47
2022/08/31 08:47:48;;;;;;;;;;;18.30;96.00;;;;;;5070682;28;19943;-50
2022/08/31 08:50:17;;;;;;;;;;;18.50;95.60;;;;;;5072107;28;20390;-49
2022/08/31 08:52:45;;;;;;;;;;;18.50;95.60;;;;;;5070824;28;19978;-50
2022/08/31 08:55:15;;;;;;;;;;;18.40;95.20;;;;;;5071867;28;19965;-48
2022/08/31 08:57:41;;;;;;;;;;;18.60;95.30;;;;;;5071316;28;19928;-49
2022/08/31 09:00:09;;;;;;;;;;;18.70;95.00;;;;;;5072010;28;19931;-49
2022/08/31 09:02:50;;;;;;;;;;;18.90;94.90;;;;;;5071731;28;19938;-51
2022/08/31 09:05:20;;;;;;;;;;;19.10;95.00;;;;;;5070382;28;20283;-47
2022/08/31 09:07:57;;;;;;;;;;;19.20;94.50;;;;;;5071239;28;20573;-50
2022/08/31 09:10:23;;;;;;;;;;;19.40;94.30;;;;;;5071050;28;19975;-50
2022/08/31 09:12:56;;;;;;;;;;;19.40;93.80;;;;;;5071612;28;19967;-47
2022/08/31 09:15:42;;;;;;;;;;;19.40;93.80;;;;;;5071856;28;19920;-47
2022/08/31 09:18:13;;;;;;;;;;;19.70;94.40;;;;;;5070778;28;20359;-46
2022/08/31 09:20:40;;;;;;;;;;;19.80;94.20;;;;;;5070757;28;19923;-48
2022/08/31 09:23:06;;;;;;;;;;;20.00;93.70;;;;;;5071496;28;19930;-48
2022/08/31 09:25:50;;;;;;;;;;;20.10;93.80;;;;;;5071069;28;19916;-47
2022/08/31 09:28:17;;;;;;;;;;;20.20;93.20;;;;;;5070914;28;19927;-48
2022/08/31 09:30:43;;;;;;;;;;;20.30;93.30;;;;;;5071410;28;19924;-50
2022/08/31 09:33:38;;;;;;;;;;;20.20;93.60;;;;;;5071157;28;19916;-48
2022/08/31 09:36:15;;;;;;;;;;;20.40;93.60;;;;;;5061912;28;20368;-47
2022/08/31 09:38:42;;;;;;;;;;;20.40;93.40;;;;;;5070316;28;19953;-48
2022/08/31 09:41:19;;;;;;;;;;;20.50;92.90;;;;;;5071007;28;19927;-51
2022/08/31 09:43:46;;;;;;;;;;;20.80;92.80;;;;;;5070720;28;19921;-50
2022/08/31 09:46:21;;;;;;;;;;;20.70;92.60;;;;;;5070382;28;19973;-46
2022/08/31 09:48:56;;;;;;;;;;;20.90;92.10;;;;;;5070346;28;19920;-47
2022/08/31 09:51:29;;;;;;;;;;;21.00;92.20;;;;;;5070828;28;19924;-47
2022/08/31 09:57:01;;;;;;;;;;;21.10;91.40;;;;;;5069441;28;19969;-48
2022/08/31 09:59:33;;;;;;;;;;;20.90;90.90;;;;;;5069751;28;20355;-47
2022/08/31 10:01:59;;;;;;;;;;;21.00;90.60;;;;;;5070363;28;19920;-48
2022/08/31 10:04:26;;;;;;;;;;;21.00;90.70;;;;;;5070305;28;19967;-48
2022/08/31 10:07:10;;;;;;;;;;;21.10;91.00;;;;;;5070029;28;20150;-47
2022/08/31 10:09:43;;;;;;;;;;;21.10;90.60;;;;;;5070093;28;19916;-49
2022/08/31 10:12:12;;;;;;;;;;;20.90;90.70;;;;;;5069952;28;19916;-50
2022/08/31 10:14:51;;;;;;;;;;;21.20;90.70;;;;;;5070612;28;19974;-49
2022/08/31 10:17:24;;;;;;;;;;;21.20;90.00;;;;;;5069401;28;20133;-50
2022/08/31 10:19:54;;;;;;;;;;;21.20;90.00;;;;;;5070026;28;19920;-48
2022/08/31 10:22:24;;;;;;;;;;;21.20;90.50;;;;;;5070108;28;19939;-46
2022/08/31 10:25:11;;;;;;;;;;;21.50;90.60;;;;;;5071093;28;19921;-48
2022/08/31 10:27:39;;;;;;;;;;;21.60;90.60;;;;;;5069272;28;19920;-48
2022/08/31 10:30:07;;;;;;;;;;;21.50;90.90;;;;;;5068165;28;19928;-50
2022/08/31 10:32:38;;;;;;;;;;;21.30;90.00;;;;;;5070319;28;19916;-48
2022/08/31 10:35:16;;;;;;;;;;;21.30;89.50;;;;;;5069925;28;19922;-48
2022/08/31 10:37:53;;;;;;;;;;;21.30;88.70;;;;;;5069499;28;19930;-47
2022/08/31 10:40:32;;;;;;;;;;;21.40;89.00;;;;;;5070031;28;19916;-48
2022/08/31 10:43:08;;;;;;;;;;;21.30;88.10;;;;;;5069988;28;19916;-48
2022/08/31 10:45:37;;;;;;;;;;;21.30;88.50;;;;;;5069553;28;19924;-47
2022/08/31 10:48:03;;;;;;;;;;;21.70;88.40;;;;;;5068847;28;19924;-48
2022/08/31 10:50:37;;;;;;;;;;;21.90;86.50;;;;;;5068790;28;19932;-46
2022/08/31 10:53:14;;;;;;;;;;;21.80;86.80;;;;;;5069501;28;20023;-48
2022/08/31 10:55:47;;;;;;;;;;;22.20;87.20;;;;;;5069955;28;19916;-46
2022/08/31 10:58:13;;;;;;;;;;;22.40;86.40;;;;;;5068459;28;19916;-48
2022/08/31 11:00:47;;;;;;;;;;;22.40;84.90;;;;;;5069989;28;19923;-48
2022/08/31 11:03:25;;;;;;;;;;;22.50;85.10;;;;;;5069739;28;19923;-47
2022/08/31 11:05:54;;;;;;;;;;;22.50;84.70;;;;;;5069723;28;20394;-45
2022/08/31 11:08:32;;;;;;;;;;;22.40;84.90;;;;;;5070667;28;19960;-47
2022/08/31 11:10:58;;;;;;;;;;;22.80;83.60;;;;;;5073621;28;20009;-48
2022/08/31 11:13:37;;;;;;;;;;;22.70;83.90;;;;;;5073968;28;19916;-48
2022/08/31 11:16:26;;;;;;;;;;;23.00;82.80;;;;;;5073783;28;19924;-48
2022/08/31 11:19:09;;;;;;;;;;;23.20;83.10;;;;;;5067305;28;20386;-50
2022/08/31 11:22:10;;;;;;;;;;;23.30;82.70;;;;;;5073738;28;20015;-48
2022/08/31 11:24:42;;;;;;;;;;;23.30;80.60;;;;;;5031273;28;19921;-48
2022/08/31 11:27:10;;;;;;;;;;;23.30;81.30;;;;;;5065636;28;19923;-47
2022/08/31 11:29:42;;;;;;;;;;;23.30;80.50;;;;;;5073172;28;19925;-49
2022/08/31 11:32:21;;;;;;;;;;;23.00;80.40;;;;;;5073448;28;20015;-45
2022/08/31 11:34:53;;;;;;;;;;;23.10;81.30;;;;;;5073529;28;20394;-47
2022/08/31 11:37:37;;;;;;;;;;;23.30;81.80;;;;;;5072938;28;19916;-46
2022/08/31 11:40:08;;;;;;;;;;;23.20;81.20;;;;;;5073364;28;20371;-48
2022/08/31 11:42:36;;;;;;;;;;;23.40;80.10;;;;;;5073400;28;19916;-47
2022/08/31 11:45:05;;;;;;;;;;;23.30;79.10;;;;;;5073343;28;20360;-45
2022/08/31 11:47:35;;;;;;;;;;;23.20;79.40;;;;;;5071880;28;19928;-51
2022/08/31 11:50:04;;;;;;;;;;;23.70;80.10;;;;;;5073320;28;19920;-47
2022/08/31 11:52:37;;;;;;;;;;;23.80;78.80;;;;;;5072558;28;19920;-46
2022/08/31 11:55:19;;;;;;;;;;;24.00;79.40;;;;;;5073440;28;19935;-46
2022/08/31 11:58:14;;;;;;;;;;;24.20;78.60;;;;;;5072463;28;19923;-48
2022/08/31 12:00:56;;;;;;;;;;;24.20;78.50;;;;;;5063514;28;20007;-52
2022/08/31 12:03:34;;;;;;;;;;;24.60;77.10;;;;;;5072827;28;19938;-50
2022/08/31 12:06:00;;;;;;;;;;;24.70;77.40;;;;;;5070808;28;19959;-49
2022/08/31 12:08:31;;;;;;;;;;;24.60;76.60;;;;;;5072497;28;20000;-47
2022/08/31 12:11:13;;;;;;;;;;;24.80;76.70;;;;;;5072438;28;19924;-46
2022/08/31 12:14:00;;;;;;;;;;;25.10;76.70;;;;;;5072614;28;19916;-49
2022/08/31 12:16:50;;;;;;;;;;;25.30;77.40;;;;;;5072231;28;20269;-46
2022/08/31 12:25:16;;;;;;;;;;;25.90;74.80;;;;;;5071785;28;19916;-50
2022/08/31 12:28:00;;;;;;;;;;;25.80;73.20;;;;;;5071902;28;19916;-46
2022/08/31 12:30:26;;;;;;;;;;;25.60;73.90;;;;;;5072471;28;19970;-51
2022/08/31 12:32:54;;;;;;;;;;;25.90;72.40;;;;;;5072050;28;19921;-45
2022/08/31 12:35:22;;;;;;;;;;;25.90;71.60;;;;;;5071968;28;19978;-50
2022/08/31 12:38:04;;;;;;;;;;;26.10;72.90;;;;;;5071496;28;19925;-47
2022/08/31 12:40:34;;;;;;;;;;;25.90;72.90;;;;;;5072168;28;19931;-47
2022/08/31 12:43:03;;;;;;;;;;;26.30;72.90;;;;;;5072456;28;19924;-50
2022/08/31 12:45:47;;;;;;;;;;;26.50;72.10;;;;;;5071798;28;19916;-46
2022/08/31 12:48:39;;;;;;;;;;;26.50;71.30;;;;;;5070961;28;19928;-49
2022/08/31 12:51:13;;;;;;;;;;;26.40;69.30;;;;;;5072102;28;19927;-47
2022/08/31 12:53:44;;;;;;;;;;;26.50;69.90;;;;;;5072096;28;19920;-47
2022/08/31 12:56:18;;;;;;;;;;;26.60;71.00;;;;;;5070041;28;19923;-48
2022/08/31 12:58:45;;;;;;;;;;;26.80;71.60;;;;;;5071661;28;19922;-49
2022/08/31 13:01:12;;;;;;;;;;;26.70;72.00;;;;;;5072088;28;20003;-46
2022/08/31 13:03:45;;;;;;;;;;;26.70;69.90;;;;;;5071514;28;20016;-45
2022/08/31 13:06:13;;;;;;;;;;;26.50;70.00;;;;;;5071393;28;20310;-48
2022/08/31 13:08:39;;;;;;;;;;;26.30;69.50;;;;;;5071493;28;19926;-48
2022/08/31 13:11:16;;;;;;;;;;;26.70;69.50;;;;;;5071357;28;20423;-46
2022/08/31 13:13:42;;;;;;;;;;;26.40;69.70;;;;;;5071740;28;19924;-48
2022/08/31 13:16:08;;;;;;;;;;;26.30;69.80;;;;;;5071206;28;19920;-45
2022/08/31 13:18:34;;;;;;;;;;;26.40;69.80;;;;;;5070827;28;19916;-47
2022/08/31 13:21:07;;;;;;;;;;;26.80;70.20;;;;;;5069997;28;20351;-50
2022/08/31 13:23:39;;;;;;;;;;;27.10;69.80;;;;;;5071387;28;19928;-48
2022/08/31 13:26:18;;;;;;;;;;;27.10;70.00;;;;;;5071018;28;20126;-47
2022/08/31 13:28:52;;;;;;;;;;;27.20;67.80;;;;;;5071146;28;19920;-47
2022/08/31 13:31:20;;;;;;;;;;;26.90;68.00;;;;;;5070972;28;19932;-49
2022/08/31 13:33:47;;;;;;;;;;;27.20;69.80;;;;;;5070018;28;20248;-48
2022/08/31 13:36:30;;;;;;;;;;;27.60;68.40;;;;;;5069650;28;19921;-46
2022/08/31 13:38:57;;;;;;;;;;;27.50;68.00;;;;;;5070878;28;19951;-46
2022/08/31 13:41:26;;;;;;;;;;;27.70;67.30;;;;;;5070804;28;20445;-47
2022/08/31 13:43:57;;;;;;;;;;;27.80;67.40;;;;;;5071019;28;19940;-47
2022/08/31 13:46:33;;;;;;;;;;;27.90;67.50;;;;;;5070244;28;19928;-47
2022/08/31 13:49:00;;;;;;;;;;;28.00;67.10;;;;;;5070427;28;20390;-51
2022/08/31 13:51:29;;;;;;;;;;;27.80;66.40;;;;;;5070791;28;19974;-47
2022/08/31 13:53:55;;;;;;;;;;;28.10;66.90;;;;;;5070586;28;19938;-46
2022/08/31 13:59:16;;;;;;;;;;;28.10;66.20;;;;;;5070877;28;19924;-47
2022/08/31 14:01:46;;;;;;;;;;;27.90;65.40;;;;;;5070517;28;19977;-48
2022/08/31 14:04:42;;;;;;;;;;;28.30;66.70;;;;;;5070533;28;19947;-48
2022/08/31 14:07:10;;;;;;;;;;;28.30;65.40;;;;;;5070283;28;20376;-46
2022/08/31 14:09:41;;;;;;;;;;;28.40;66.20;;;;;;5070177;28;19920;-44
2022/08/31 14:12:08;;;;;;;;;;;28.50;65.50;;;;;;5070695;28;19917;-50
2022/08/31 14:14:40;;;;;;;;;;;28.70;66.20;;;;;;5070108;28;19924;-51
2022/08/31 14:17:10;;;;;;;;;;;28.10;65.60;;;;;;5069742;28;19917;-48
2022/08/31 14:19:39;;;;;;;;;;;28.70;66.50;;;;;;5070177;28;20002;-46
2022/08/31 14:22:15;;;;;;;;;;;28.60;65.70;;;;;;5070473;28;20363;-49
2022/08/31 14:24:42;;;;;;;;;;;28.60;66.00;;;;;;5069825;28;20476;-49
2022/08/31 14:27:09;;;;;;;;;;;28.80;66.30;;;;;;5069776;28;19920;-49
2022/08/31 14:29:36;;;;;;;;;;;28.80;65.20;;;;;;5069552;28;20006;-45
2022/08/31 14:32:03;;;;;;;;;;;28.40;64.50;;;;;;5070166;28;20033;-45
2022/08/31 14:34:33;;;;;;;;;;;28.80;65.80;;;;;;5070137;28;19964;-46
2022/08/31 14:37:05;;;;;;;;;;;28.60;65.10;;;;;;5069640;28;19916;-48
2022/08/31 14:39:30;;;;;;;;;;;28.60;65.70;;;;;;5069786;28;19924;-46
2022/08/31 14:42:00;;;;;;;;;;;28.70;64.70;;;;;;5070340;28;20294;-46
2022/08/31 14:44:30;;;;;;;;;;;28.90;64.70;;;;;;5069569;28;19970;-50
2022/08/31 14:46:56;;;;;;;;;;;28.80;64.40;;;;;;5068707;28;19920;-45